Thunder radar more information blitzortung!


Rain radar  rain snow radar



Ingen spesiell oppmerksomhet nødvendig.    Det er ingen advarsler

Weather Underground History siden Text

Daglig sammendrag for Februar 18, 2018 enheter:  Metric    Engelsk   Begge
« Forrige Dag
Neste Dag »
Daglig Weekly Månedlig Årlig Custom
  Gjeldene: høy: Lav: Snitt:
Temperatur: -16.8 °C -17.8 °C -16.8 °C -15.3 °C
Duggpunkt: -17.4 °C -17.8 °C -17.4 °C -15.9 °C
Luftfuktighet: 92 % Humidity % 87 % 92 %
Vind: 6 km/h 0 km/h 0 km/h 8.5 km/h
Vindkast: 6 km/h 0 km/h - -
Vind:East - - South
Trykk: 34462.7 hPa 0 hPa 34428.8 hPa -
Nedbør: 142.24 mm      
Historical Graphs
 
 
Tabelldata for Februar 18, 2018
Tid Temperatur Duggpunkt Trykk Vind Vind Vindkast Luftfuktighet Regn Intensitet (Time)
-17.8 °C -17.8 °C 0 hPa Calm     Humidity % 0 mm
00:04 -16.2 °C -16.7 °C 34486.4 hPa SSE 44.7 km/h 44.7 km/h 94 % 33.02 mm
00:09 -16.2 °C -16.7 °C 34486.4 hPa SSE 38.8 km/h 38.8 km/h 94 % 33.02 mm
00:14 -16.2 °C -16.7 °C 34486.4 hPa South 41.7 km/h 41.7 km/h 94 % 38.1 mm
00:19 -16.3 °C -16.8 °C 34476.3 hPa SSE 41.7 km/h 41.7 km/h 94 % 45.72 mm
00:24 -16.3 °C -16.8 °C 34476.3 hPa SE 35.7 km/h 35.7 km/h 94 % 50.8 mm
00:29 -16.4 °C -16.9 °C 34476.3 hPa SE 41.7 km/h 41.7 km/h 94 % 50.8 mm
00:34 -16.4 °C -16.9 °C 34476.3 hPa SE 41.7 km/h 41.7 km/h 94 % 58.42 mm
00:39 -16.3 °C -16.8 °C 34476.3 hPa South 44.7 km/h 44.7 km/h 94 % 63.5 mm
00:44 -16.4 °C -16.9 °C 34476.3 hPa SSE 47.6 km/h 47.6 km/h 94 % 71.12 mm
00:49 -16.4 °C -16.9 °C 34476.3 hPa SSE 18.2 km/h 44.1 km/h 94 % 7.62 mm
00:54 -16.4 °C -16.9 °C 34476.3 hPa SE 47.6 km/h 47.6 km/h 94 % 83.82 mm
00:59 -16.3 °C -16.8 °C 34462.7 hPa SSE 7.7 km/h 46.7 km/h 94 % 0 mm
01:04 -16.3 °C -16.7 °C 34462.7 hPa SSE 12.9 km/h 36.2 km/h 95 % 0 mm
01:09 -16.2 °C -16.6 °C 34462.7 hPa SE 15.6 km/h 44.1 km/h 95 % 0 mm
01:14 -16 °C -16.4 °C 34462.7 hPa SE 12.9 km/h 41.4 km/h 95 % 0 mm
01:19 -15.9 °C -16.3 °C 34462.7 hPa SE 18.2 km/h 36.2 km/h 95 % 0 mm
01:24 -15.7 °C -16.2 °C 34462.7 hPa SSE 12.9 km/h 31.1 km/h 95 % 0 mm
01:29 -15.6 °C -16 °C 34462.7 hPa SSE 25.9 km/h 46.7 km/h 95 % 0 mm
01:34 -15.5 °C -15.9 °C 34462.7 hPa SSE 12.9 km/h 44.1 km/h 95 % 7.62 mm
01:39 -15.5 °C -15.9 °C 34462.7 hPa SSE 5.1 km/h 33.6 km/h 95 % 0 mm
01:44 -15.6 °C -15.9 °C 34462.7 hPa SSE 7.7 km/h 23.3 km/h 95 % 0 mm
01:49 -15.5 °C -15.9 °C 34462.7 hPa SSE 15.6 km/h 36.2 km/h 95 % 0 mm
01:54 -15.5 °C -15.9 °C 34462.7 hPa SSE 35.7 km/h 35.7 km/h 95 % 25.4 mm
01:59 -15.5 °C -15.9 °C 34462.7 hPa South 35.7 km/h 35.7 km/h 95 % 12.7 mm
02:04 -15.5 °C -15.9 °C 34462.7 hPa SSE 7.7 km/h 31.1 km/h 95 % 0 mm
02:09 -15.5 °C -15.9 °C 34462.7 hPa SSE 5.1 km/h 23.3 km/h 95 % 0 mm
02:14 -15.5 °C -15.9 °C 34462.7 hPa SSE 5.1 km/h 18.2 km/h 95 % 0 mm
02:19 -15.5 °C -15.9 °C 34462.7 hPa SSE 12.9 km/h 33.6 km/h 95 % 0 mm
02:24 -15.4 °C -15.9 °C 34462.7 hPa SSE 12.9 km/h 33.6 km/h 95 % 0 mm
02:29 -15.4 °C -15.7 °C 34462.7 hPa SSE 5.1 km/h 31.1 km/h 96 % 0 mm
02:34 -15.4 °C -15.7 °C 34462.7 hPa SSE 7.7 km/h 31.1 km/h 96 % 0 mm
02:39 -15.5 °C -15.9 °C 34462.7 hPa SSE 12.9 km/h 31.1 km/h 95 % 0 mm
02:44 -15.6 °C -15.9 °C 34462.7 hPa SSE 5.1 km/h 33.6 km/h 95 % 0 mm
02:49 -15.6 °C -16 °C 34462.7 hPa SSE 5.1 km/h 23.3 km/h 95 % 0 mm
02:54 -15.6 °C -15.9 °C 34452.6 hPa SSE 12.9 km/h 23.3 km/h 96 % 0 mm
02:59 -15.6 °C -15.9 °C 34462.7 hPa SSE 12.9 km/h 25.9 km/h 96 % 0 mm
03:04 -15.5 °C -15.8 °C 34452.6 hPa SSE 7.7 km/h 31.1 km/h 96 % 0 mm
03:09 -15.5 °C -15.8 °C 34452.6 hPa SSE 12.9 km/h 33.6 km/h 96 % 0 mm
03:14 -15.5 °C -15.8 °C 34452.6 hPa SSE 7.7 km/h 25.9 km/h 96 % 0 mm
03:19 -15.4 °C -15.7 °C 34452.6 hPa SSE 12.9 km/h 31.1 km/h 96 % 0 mm
03:24 -15.4 °C -15.7 °C 34452.6 hPa SSE 7.7 km/h 31.1 km/h 96 % 0 mm
03:29 -15.4 °C -15.7 °C 34452.6 hPa SSE 7.7 km/h 31.1 km/h 96 % 0 mm
03:34 -15.4 °C -15.7 °C 34452.6 hPa SSE 7.7 km/h 15.6 km/h 96 % 0 mm
03:39 -15.3 °C -15.7 °C 34452.6 hPa SSE 12.9 km/h 25.9 km/h 96 % 0 mm
03:44 -15.3 °C -15.6 °C 34452.6 hPa SSE 12.9 km/h 25.9 km/h 96 % 0 mm
03:49 -15.3 °C -15.6 °C 34452.6 hPa SSE 7.7 km/h 31.1 km/h 96 % 0 mm
03:54 -15.3 °C -15.6 °C 34452.6 hPa SSE 12.9 km/h 23.3 km/h 96 % 0 mm
04:04 -15.3 °C -15.7 °C 34442.4 hPa SSE 5.1 km/h 12.9 km/h 96 % 0 mm
04:09 -15.4 °C -15.7 °C 34442.4 hPa SSE 5.1 km/h 15.6 km/h 96 % 0 mm
04:14 -15.4 °C -15.7 °C 34442.4 hPa SE 15 km/h 15 km/h 96 % 0 mm
04:19 -15.4 °C -15.7 °C 34442.4 hPa SSE 2.6 km/h 12.9 km/h 96 % 0 mm
04:24 -15.4 °C -15.8 °C 34442.4 hPa South 11.9 km/h 11.9 km/h 96 % 0 mm
04:29 -15.5 °C -15.8 °C 34442.4 hPa SSE 9 km/h 9 km/h 96 % 0 mm
04:34 -15.5 °C -15.8 °C 34442.4 hPa SSE 2.6 km/h 10.3 km/h 96 % 0 mm
04:39 -15.5 °C -15.8 °C 34442.4 hPa SSE 2.6 km/h 7.7 km/h 96 % 0 mm
04:44 -15.5 °C -15.8 °C 34442.4 hPa SSE 9 km/h 9 km/h 96 % 0 mm
04:49 -15.5 °C -15.8 °C 34442.4 hPa SSE 9 km/h 9 km/h 96 % 0 mm
04:54 -15.5 °C -15.8 °C 34442.4 hPa SSE 2.6 km/h 10.3 km/h 96 % 0 mm
04:59 -15.4 °C -15.8 °C 34442.4 hPa South 5.1 km/h 10.3 km/h 96 % 7.62 mm
05:04 -15.4 °C -15.7 °C 34442.4 hPa South 5.1 km/h 7.7 km/h 96 % 7.62 mm
05:09 -15.4 °C -15.7 °C 34442.4 hPa South 5.1 km/h 20.8 km/h 96 % 20.32 mm
05:14 -15.4 °C -15.8 °C 34428.8 hPa South 2.6 km/h 10.3 km/h 96 % 0 mm
05:19 -15.4 °C -15.7 °C 34442.4 hPa South 5.1 km/h 12.9 km/h 96 % 0 mm
05:24 -15.4 °C -15.7 °C 34428.8 hPa SSE 2.6 km/h 7.7 km/h 96 % 0 mm
05:29 -15.4 °C -15.7 °C 34428.8 hPa SSE 2.6 km/h 10.3 km/h 96 % 0 mm
05:34 -15.4 °C -15.8 °C 34442.4 hPa SSE 5.1 km/h 12.9 km/h 96 % 0 mm
05:39 -15.5 °C -15.8 °C 34428.8 hPa SSE 5.1 km/h 10.3 km/h 96 % 0 mm
05:44 -15.5 °C -15.8 °C 34428.8 hPa SSE 11.9 km/h 11.9 km/h 96 % 25.4 mm
05:49 -15.6 °C -15.9 °C 34442.4 hPa SSE 5.1 km/h 10.3 km/h 96 % 0 mm
05:54 -15.6 °C -15.9 °C 34442.4 hPa SSE 5.1 km/h 12.9 km/h 96 % 0 mm
05:59 -15.6 °C -15.9 °C 34442.4 hPa SSE 2.6 km/h 12.9 km/h 96 % 0 mm
06:04 -15.6 °C -15.9 °C 34442.4 hPa South 2.6 km/h 18.2 km/h 96 % 0 mm
06:09 -15.5 °C -15.9 °C 34442.4 hPa South 5.1 km/h 12.9 km/h 95 % 0 mm
06:14 -15.5 °C -15.9 °C 34442.4 hPa South 5.1 km/h 10.3 km/h 95 % 0 mm
06:19 -15.4 °C -15.9 °C 34442.4 hPa SSE 15 km/h 15 km/h 95 % 0 mm
06:24 -15.4 °C -15.9 °C 34442.4 hPa South 5.1 km/h 12.9 km/h 95 % 0 mm
06:29 -15.4 °C -15.8 °C 34442.4 hPa South 5.1 km/h 10.3 km/h 95 % 0 mm
06:34 -15.4 °C -15.8 °C 34442.4 hPa SSE 5.1 km/h 12.9 km/h 95 % 0 mm
06:39 -15.5 °C -15.9 °C 34442.4 hPa SSE 5.1 km/h 12.9 km/h 95 % 0 mm
06:44 -15.5 °C -15.9 °C 34442.4 hPa SSE 5.1 km/h 12.9 km/h 95 % 0 mm
06:49 -15.6 °C -15.9 °C 34442.4 hPa SSE 2.6 km/h 10.3 km/h 95 % 0 mm
06:54 -15.6 °C -15.9 °C 34442.4 hPa SSE 5.1 km/h 12.9 km/h 95 % 0 mm
06:59 -15.6 °C -15.9 °C 34442.4 hPa SSE 2.6 km/h 10.3 km/h 95 % 0 mm
07:04 -15.6 °C -15.9 °C 34442.4 hPa South 9 km/h 9 km/h 95 % 0 mm
07:09 -15.6 °C -16 °C 34442.4 hPa SSE 5.1 km/h 15.6 km/h 95 % 0 mm
07:14 -15.6 °C -16 °C 34442.4 hPa SSE 5.1 km/h 12.9 km/h 95 % 0 mm
07:19 -15.6 °C -15.9 °C 34452.6 hPa SSE 15 km/h 15 km/h 95 % 0 mm
07:24 -15.6 °C -15.9 °C 34452.6 hPa SSE 5.1 km/h 10.3 km/h 95 % 0 mm
07:29 -15.6 °C -16 °C 34452.6 hPa SSE 5.1 km/h 12.9 km/h 95 % 0 mm
07:34 -15.6 °C -16 °C 34452.6 hPa SSE 5.1 km/h 10.3 km/h 95 % 0 mm
07:39 -15.6 °C -15.9 °C 34452.6 hPa SSE 9 km/h 9 km/h 95 % 0 mm
07:44 -15.6 °C -16 °C 34452.6 hPa SE 9 km/h 9 km/h 95 % 0 mm
07:49 -15.6 °C -16 °C 34452.6 hPa SSE 5.1 km/h 10.3 km/h 95 % 0 mm
07:54 -15.6 °C -16 °C 34452.6 hPa SSE 2.6 km/h 10.3 km/h 95 % 0 mm
07:59 -15.6 °C -15.9 °C 34452.6 hPa South 2.6 km/h 10.3 km/h 95 % 0 mm
08:04 -15.6 °C -15.9 °C 34452.6 hPa SSE 5.1 km/h 7.7 km/h 95 % 0 mm
08:09 -15.6 °C -15.9 °C 34452.6 hPa South 2.6 km/h 12.9 km/h 95 % 0 mm
08:14 -15.5 °C -15.9 °C 34462.7 hPa South 5.1 km/h 15.6 km/h 95 % 0 mm
08:19 -15.4 °C -15.9 °C 34462.7 hPa SSW 5.1 km/h 10.3 km/h 95 % 7.62 mm
08:24 -15.5 °C -15.9 °C 34452.6 hPa SSW 2.6 km/h 10.3 km/h 95 % 0 mm
08:29 -15.5 °C -15.9 °C 34452.6 hPa South 2.6 km/h 7.7 km/h 95 % 0 mm
08:34 -15.5 °C -15.9 °C 34452.6 hPa SSE 2.6 km/h 7.7 km/h 95 % 0 mm
08:39 -15.6 °C -15.9 °C 34452.6 hPa South 9 km/h 9 km/h 95 % 12.7 mm
08:44 -15.6 °C -16 °C 34462.7 hPa SSE 9 km/h 9 km/h 95 % 12.7 mm
08:49 -15.6 °C -16 °C 34452.6 hPa SSE 9 km/h 9 km/h 95 % 12.7 mm
08:54 -15.6 °C -16.1 °C 34452.6 hPa SSE 5.1 km/h 10.3 km/h 94 % 0 mm
08:59 -15.6 °C -16.1 °C 34452.6 hPa SSE 2.6 km/h 7.7 km/h 94 % 0 mm
09:04 -15.6 °C -16.1 °C 34452.6 hPa SSE 2.6 km/h 10.3 km/h 94 % 0 mm
09:09 -15.6 °C -16.1 °C 34452.6 hPa SSE 9 km/h 9 km/h 94 % 12.7 mm
09:14 -15.6 °C -16.1 °C 34452.6 hPa SSE 2.6 km/h 7.7 km/h 94 % 0 mm
09:19 -15.7 °C -16.2 °C 34452.6 hPa South 9 km/h 9 km/h 94 % 7.62 mm
09:24 -15.7 °C -16.2 °C 34452.6 hPa SSE 2.6 km/h 10.3 km/h 94 % 0 mm
09:29 -15.7 °C -16.2 °C 34452.6 hPa SSE 2.6 km/h 7.7 km/h 94 % 0 mm
09:34 -15.7 °C -16.2 °C 34452.6 hPa SSE 2.6 km/h 7.7 km/h 94 % 0 mm
09:40 -15.8 °C -16.3 °C 34452.6 hPa SSE 2.6 km/h 7.7 km/h 94 % 0 mm
09:45 -15.8 °C -16.3 °C 34452.6 hPa SSE 9 km/h 9 km/h 94 % 0 mm
09:50 -15.7 °C -16.2 °C 34452.6 hPa SSE 9 km/h 9 km/h 94 % 0 mm
09:55 -15.6 °C -16.1 °C 34452.6 hPa SSE 9 km/h 9 km/h 94 % 0 mm
10:00 -15.5 °C -16 °C 34452.6 hPa SSE 2.6 km/h 7.7 km/h 94 % 134.62 mm
10:20 -15.3 °C -15.8 °C 34452.6 hPa SSE 5.1 km/h 10.3 km/h 94 % 134.62 mm
10:25 -15.3 °C -15.8 °C 34452.6 hPa SSE 5.1 km/h 10.3 km/h 94 % 0 mm
10:30 -15.3 °C -15.8 °C 34452.6 hPa SSE 5.1 km/h 10.3 km/h 94 % 0 mm
10:39 -14.8 °C -15.2 °C 34452.6 hPa SSE 9 km/h 10.1 km/h 94 % 134.62 mm
10:44 -14.6 °C -15.1 °C 34452.6 hPa SSE 9 km/h 9 km/h 94 % 134.62 mm
10:49 -14.5 °C -15 °C 34452.6 hPa SSE 9 km/h 9 km/h 94 % 134.62 mm
10:54 -14.5 °C -15.1 °C 34452.6 hPa SSE 11.9 km/h 11.9 km/h 93 % 134.62 mm
10:59 -14.5 °C -15.1 °C 34452.6 hPa SSE 11.9 km/h 11.9 km/h 93 % 134.62 mm
11:04 -14.5 °C -15.1 °C 34452.6 hPa SSE 11.9 km/h 11.9 km/h 93 % 134.62 mm
11:10 -14.4 °C -15.1 °C 34462.7 hPa WNW 15 km/h 15 km/h 93 % 134.62 mm
11:15 -14.4 °C -15 °C 34452.6 hPa WSW 15 km/h 15 km/h 93 % 134.62 mm
11:20 -14.4 °C -14.9 °C 34462.7 hPa WSW 5.1 km/h 10.3 km/h 93 % 0 mm
11:25 -14.4 °C -15 °C 34462.7 hPa West 20.9 km/h 20.9 km/h 93 % 0 mm
11:30 -14.4 °C -15.1 °C 34462.7 hPa West 5.1 km/h 15.6 km/h 93 % 0 mm
11:35 -14.5 °C -15.2 °C 34462.7 hPa WNW 2.6 km/h 5.1 km/h 92 % 0 mm
11:40 -14.5 °C -15.2 °C 34462.7 hPa WNW 9 km/h 9 km/h 92 % 0 mm
11:45 -14.4 °C -15.1 °C 34462.7 hPa WNW 2.6 km/h 7.7 km/h 92 % 0 mm
11:50 -14.5 °C -15.2 °C 34462.7 hPa NW 5.1 km/h 12.9 km/h 92 % 0 mm
11:55 -14.5 °C -15.2 °C 34476.3 hPa NW 7.7 km/h 12.9 km/h 92 % 0 mm
12:00 -14.6 °C -15.3 °C 34476.3 hPa North 15 km/h 15 km/h 91 % 0 mm
12:05 -14.6 °C -15.4 °C 34476.3 hPa NW 5.1 km/h 10.3 km/h 91 % 0 mm
12:10 -14.7 °C -15.4 °C 34476.3 hPa NW 15 km/h 15 km/h 91 % 0 mm
12:15 -14.7 °C -15.4 °C 34476.3 hPa NW 7.7 km/h 12.9 km/h 91 % 0 mm
12:20 -14.7 °C -15.4 °C 34476.3 hPa NNW 2.6 km/h 12.9 km/h 91 % 0 mm
12:25 -14.8 °C -15.5 °C 34476.3 hPa NNW 2.6 km/h 12.9 km/h 91 % 0 mm
12:30 -14.7 °C -15.4 °C 34476.3 hPa NNW 2.6 km/h 7.7 km/h 91 % 0 mm
12:35 -14.7 °C -15.4 °C 34476.3 hPa NNW 9 km/h 9 km/h 91 % 0 mm
12:40 -14.7 °C -15.4 °C 34476.3 hPa NNW 2.6 km/h 5.1 km/h 91 % 0 mm
12:45 -14.7 °C -15.4 °C 34476.3 hPa Calm     91 % 0 mm
12:50 -14.7 °C -15.4 °C 34486.4 hPa NNW 3.1 km/h   91 % 0 mm
12:55 -14.7 °C -15.4 °C 34486.4 hPa NNW 2.6 km/h 10.3 km/h 91 % 0 mm
13:00 -14.7 °C -15.4 °C 34476.3 hPa NW 5.1 km/h 7.7 km/h 91 % 0 mm
13:05 -14.7 °C -15.4 °C 34476.3 hPa Calm   7.7 km/h 91 % 0 mm
13:10 -14.8 °C -15.5 °C 34476.3 hPa East 9 km/h 9 km/h 91 % 7.62 mm
13:15 -14.8 °C -15.6 °C 34476.3 hPa SE 5.1 km/h 10.3 km/h 91 % 0 mm
13:20 -14.8 °C -15.6 °C 34476.3 hPa SSE 5.1 km/h 10.3 km/h 91 % 0 mm
13:25 -14.8 °C -15.6 °C 34476.3 hPa SE 5.1 km/h 10.3 km/h 91 % 0 mm
13:30 -14.8 °C -15.5 °C 34476.3 hPa SE 2.6 km/h 7.7 km/h 91 % 0 mm
13:35 -14.8 °C -15.5 °C 34476.3 hPa SE 2.6 km/h 5.1 km/h 91 % 0 mm
13:40 -14.8 °C -15.4 °C 34476.3 hPa SSE 5.1 km/h 10.3 km/h 92 % 0 mm
13:45 -14.8 °C -15.5 °C 34476.3 hPa SSE 2.6 km/h 10.3 km/h 91 % 0 mm
13:50 -14.7 °C -15.4 °C 34476.3 hPa SSE 5.1 km/h 10.3 km/h 92 % 0 mm
13:55 -14.7 °C -15.3 °C 34476.3 hPa SSE 5.1 km/h 10.3 km/h 92 % 0 mm
14:00 -14.6 °C -15.3 °C 34476.3 hPa SSE 5.1 km/h 10.3 km/h 92 % 0 mm
14:05 -14.6 °C -15.3 °C 34476.3 hPa SSE 5.1 km/h 10.3 km/h 91 % 0 mm
14:10 -14.5 °C -15.2 °C 34462.7 hPa SSE 9 km/h 9 km/h 91 % 0 mm
14:15 -14.5 °C -15.2 °C 34462.7 hPa Calm   7.7 km/h 91 % 0 mm
14:20 -14.4 °C -15.2 °C 34462.7 hPa SSE 5.1 km/h 7.7 km/h 91 % 0 mm
14:25 -14.4 °C -15.3 °C 34462.7 hPa SSE 5.1 km/h 7.7 km/h 90 % 0 mm
14:30 -14.4 °C -15.2 °C 34462.7 hPa SSE 9 km/h 9 km/h 90 % 0 mm
14:35 -14.4 °C -15.2 °C 34462.7 hPa SSE 2.6 km/h 5.1 km/h 90 % 0 mm
14:40 -14.4 °C -15.2 °C 34462.7 hPa SSE 9 km/h 9 km/h 90 % 0 mm
14:45 -14.3 °C -15.2 °C 34462.7 hPa SSE 9 km/h 9 km/h 89 % 0 mm
14:50 -14.3 °C -15.2 °C 34462.7 hPa South 9 km/h 9 km/h 89 % 0 mm
14:55 -14.3 °C -15.2 °C 34462.7 hPa South 9 km/h 9 km/h 89 % 0 mm
15:00 -14.3 °C -15.3 °C 34476.3 hPa South 9 km/h 9 km/h 88 % 0 mm
15:05 -14.3 °C -15.3 °C 34462.7 hPa South 9 km/h 9 km/h 88 % 0 mm
15:10 -14.3 °C -15.3 °C 34476.3 hPa SSW 9 km/h 9 km/h 88 % 0 mm
15:15 -14.3 °C -15.3 °C 34476.3 hPa SSW 9 km/h   88 % 0 mm
15:20 -14.3 °C -15.3 °C 34476.3 hPa SSW 6 km/h   88 % 0 mm
15:25 -14.3 °C -15.3 °C 34476.3 hPa SW 9 km/h 9 km/h 88 % 0 mm
15:30 -14.3 °C -15.4 °C 34476.3 hPa SW 9 km/h 9 km/h 87 % 0 mm
15:35 -14.3 °C -15.3 °C 34476.3 hPa SW 9 km/h 9 km/h 88 % 0 mm
15:40 -14.3 °C -15.4 °C 34476.3 hPa WSW 9 km/h 9 km/h 87 % 0 mm
15:45 -14.3 °C -15.4 °C 34476.3 hPa WSW 9 km/h   87 % 0 mm
15:50 -14.3 °C -15.4 °C 34476.3 hPa WSW 6 km/h   87 % 0 mm
15:55 -14.3 °C -15.4 °C 34476.3 hPa WSW 3.1 km/h 3.1 km/h 87 % 0 mm
16:00 -14.3 °C -15.4 °C 34476.3 hPa WSW 3.1 km/h   87 % 0 mm
16:05 -14.3 °C -15.4 °C 34476.3 hPa WSW 6 km/h 6 km/h 87 % 0 mm
16:10 -14.3 °C -15.4 °C 34476.3 hPa WSW 6 km/h 6 km/h 87 % 0 mm
16:15 -14.4 °C -15.5 °C 34476.3 hPa WSW 6 km/h   87 % 0 mm
16:20 -14.4 °C -15.5 °C 34476.3 hPa WSW 6 km/h 6 km/h 87 % 0 mm
16:25 -14.4 °C -15.4 °C 34476.3 hPa WSW 6 km/h 6 km/h 88 % 0 mm
16:30 -14.5 °C -15.5 °C 34476.3 hPa WSW 9 km/h 9 km/h 88 % 0 mm
16:35 -14.5 °C -15.5 °C 34476.3 hPa SE 9 km/h 9 km/h 88 % 0 mm
16:40 -14.6 °C -15.6 °C 34476.3 hPa ESE 9 km/h 9 km/h 88 % 0 mm
16:45 -14.6 °C -15.7 °C 34476.3 hPa ESE 9 km/h 9 km/h 88 % 0 mm
16:50 -14.7 °C -15.6 °C 34476.3 hPa ESE 9 km/h 9 km/h 89 % 0 mm
16:55 -14.7 °C -15.6 °C 34476.3 hPa ESE 9 km/h   89 % 0 mm
17:00 -14.8 °C -15.7 °C 34476.3 hPa ESE 3.1 km/h   89 % 0 mm
17:05 -14.8 °C -15.7 °C 34476.3 hPa ESE 3.1 km/h   89 % 0 mm
17:10 -14.8 °C -15.7 °C 34476.3 hPa ESE 3.1 km/h   89 % 0 mm
17:15 -14.8 °C -15.8 °C 34476.3 hPa ESE 6 km/h 6 km/h 89 % 0 mm
17:20 -14.9 °C -15.9 °C 34462.7 hPa ESE 9 km/h 9 km/h 89 % 0 mm
17:25 -15.1 °C -15.9 °C 34462.7 hPa SSE 9 km/h 9 km/h 89 % 0 mm
17:30 -15.1 °C -15.9 °C 34462.7 hPa SSE 11.9 km/h 11.9 km/h 90 % 0 mm
17:35 -15.2 °C -16 °C 34462.7 hPa South 11.9 km/h 11.9 km/h 90 % 0 mm
17:40 -15.2 °C -16.1 °C 34476.3 hPa SSE 9 km/h 9 km/h 90 % 0 mm
17:45 -15.3 °C -16.2 °C 34476.3 hPa SSE 9 km/h 9 km/h 90 % 0 mm
17:50 -15.3 °C -16.2 °C 34462.7 hPa SSE 9 km/h 9 km/h 90 % 0 mm
17:55 -15.4 °C -16.2 °C 34476.3 hPa SE 9 km/h 9 km/h 91 % 0 mm
18:00 -15.4 °C -16.2 °C 34462.7 hPa SSE 9 km/h 9 km/h 91 % 0 mm
18:05 -15.4 °C -16.2 °C 34462.7 hPa SSE 9 km/h 9 km/h 91 % 0 mm
18:11 -15.5 °C -16.3 °C 34462.7 hPa SSE 9 km/h 9 km/h 91 % 0 mm
18:16 -15.6 °C -16.3 °C 34462.7 hPa SSE 9 km/h   91 % 0 mm
18:21 -15.6 °C -16.3 °C 34462.7 hPa SSE 6 km/h   91 % 0 mm
18:26 -15.6 °C -16.3 °C 34462.7 hPa SSE 6 km/h   91 % 0 mm
18:31 -15.7 °C -16.4 °C 34462.7 hPa SSE 6 km/h   91 % 0 mm
18:36 -15.7 °C -16.4 °C 34462.7 hPa Calm     91 % 0 mm
18:41 -15.7 °C -16.5 °C 34462.7 hPa Calm     91 % 0 mm
18:46 -15.8 °C -16.6 °C 34462.7 hPa Calm     91 % 0 mm
18:51 -15.8 °C -16.6 °C 34462.7 hPa Calm     91 % 0 mm
18:56 -15.9 °C -16.6 °C 34462.7 hPa Calm     91 % 0 mm
19:01 -15.9 °C -16.7 °C 34462.7 hPa Calm     91 % 0 mm
19:06 -16 °C -16.8 °C 34462.7 hPa Calm     91 % 0 mm
19:11 -16.1 °C -16.8 °C 34462.7 hPa SSE 6 km/h 6 km/h 91 % 0 mm
19:16 -16.2 °C -16.9 °C 34462.7 hPa SSE 6 km/h 6 km/h 91 % 0 mm
19:21 -16.2 °C -17 °C 34462.7 hPa SSE 6 km/h 6 km/h 91 % 0 mm
19:26 -16.2 °C -17 °C 34462.7 hPa SSE 6 km/h 6 km/h 91 % 0 mm
19:31 -16.3 °C -17.1 °C 34462.7 hPa SSE 6 km/h 6 km/h 91 % 0 mm
19:36 -16.3 °C -17.1 °C 34462.7 hPa SSE 6 km/h 6 km/h 91 % 0 mm
19:41 -16.3 °C -17.1 °C 34462.7 hPa SSE 9 km/h 9 km/h 91 % 0 mm
19:46 -16.3 °C -17.1 °C 34462.7 hPa SSE 9 km/h   91 % 0 mm
19:51 -16.4 °C -17.1 °C 34462.7 hPa SSE 9 km/h   92 % 0 mm
19:56 -16.4 °C -17.2 °C 34462.7 hPa SSE 9 km/h   91 % 0 mm
20:01 -16.5 °C -17.2 °C 34462.7 hPa SSE 9 km/h   91 % 0 mm
20:06 -16.5 °C -17.2 °C 34462.7 hPa SSE 3.1 km/h   92 % 0 mm
20:11 -16.6 °C -17.2 °C 34462.7 hPa Calm     92 % 0 mm
20:16 -16.6 °C -17.2 °C 34462.7 hPa Calm     92 % 0 mm
20:21 -16.6 °C -17.3 °C 34462.7 hPa Calm   0.3 km/h 92 % 0 mm
20:26 -16.7 °C -17.3 °C 34462.7 hPa East 9 km/h 9 km/h 92 % 0 mm
20:31 -16.7 °C -17.4 °C 34462.7 hPa ENE 9 km/h 9 km/h 92 % 0 mm
20:36 -16.8 °C -17.4 °C 34462.7 hPa East 9 km/h 9 km/h 92 % 0 mm
20:41 -16.8 °C -17.4 °C 34462.7 hPa East 6 km/h 6 km/h 92 % 0 mm
Bernervegen Værstasjon
Compliments of Weather Underground - 3.75 mb

Script utviklet av  Jim McMurry - jmcmurry@mwt.net Tilpasset for tamplaten av  Wim van der Kuil - Leuven-Template.eu

Du finner vår vær info også på:

European Weather Network

WeatherCloud

Weather Underground

AWEKAS

HAMweather, WeatherForYou, PWS Weather

Utrustning vi bruker:

vær-station
Davis VP2

vær-programmet
Weather Display

Davis VP2

Weather Display